createdAt,value
2017-08-13T00:00:58.057Z,972.04
2017-08-13T00:01:58.052Z,972.06
2017-08-13T00:02:58.046Z,972.02
2017-08-13T00:03:58.041Z,972.02
2017-08-13T00:04:58.036Z,972.04
2017-08-13T00:05:58.030Z,972.02
2017-08-13T00:06:58.028Z,972
2017-08-13T00:07:58.020Z,972
2017-08-13T00:08:58.012Z,972.03
2017-08-13T00:09:58.007Z,972.03
2017-08-13T00:10:58.003Z,972.02
2017-08-13T00:11:57.997Z,971.98
2017-08-13T00:12:57.992Z,972
2017-08-13T00:13:57.983Z,972
2017-08-13T00:14:57.980Z,971.94
2017-08-13T00:15:57.974Z,971.92
2017-08-13T00:16:57.968Z,972
2017-08-13T00:17:57.982Z,971.98
2017-08-13T00:18:57.960Z,971.93
2017-08-13T00:19:57.954Z,971.95
2017-08-13T00:20:57.949Z,971.95
2017-08-13T00:21:57.941Z,971.98
2017-08-13T00:22:57.935Z,971.98
2017-08-13T00:23:57.930Z,971.98
2017-08-13T00:24:57.925Z,971.93
2017-08-13T00:25:57.919Z,971.98
2017-08-13T00:26:57.913Z,971.98
2017-08-13T00:27:57.909Z,972.01
2017-08-13T00:28:57.903Z,972
2017-08-13T00:29:57.897Z,971.97
2017-08-13T00:30:57.892Z,971.97
2017-08-13T00:31:57.886Z,971.98
2017-08-13T00:32:57.880Z,971.98
2017-08-13T00:33:57.876Z,971.98
2017-08-13T00:34:57.870Z,971.95
2017-08-13T00:35:57.863Z,971.97
2017-08-13T00:36:57.859Z,971.95
2017-08-13T00:37:57.854Z,971.95
2017-08-13T00:38:57.852Z,971.95
2017-08-13T00:39:57.843Z,971.91
2017-08-13T00:40:57.839Z,971.96
2017-08-13T00:41:57.832Z,971.92
2017-08-13T00:42:57.826Z,971.94
2017-08-13T00:43:57.819Z,971.92
2017-08-13T00:44:57.816Z,971.92
2017-08-13T00:45:57.810Z,971.93
2017-08-13T00:46:57.804Z,971.9
2017-08-13T00:47:57.798Z,971.91
2017-08-13T00:48:57.795Z,971.86
2017-08-13T00:49:57.787Z,971.88
2017-08-13T00:50:57.783Z,971.86
2017-08-13T00:51:57.776Z,971.87
2017-08-13T00:52:57.771Z,971.84
2017-08-13T00:53:57.764Z,971.83
2017-08-13T00:54:57.760Z,971.82
2017-08-13T00:55:57.756Z,971.81
2017-08-13T00:56:57.748Z,971.84
2017-08-13T00:57:57.744Z,971.79
2017-08-13T00:58:57.739Z,971.78
2017-08-13T00:59:57.732Z,971.79
2017-08-13T01:00:57.728Z,971.77
2017-08-13T01:01:57.721Z,971.82
2017-08-13T01:02:57.716Z,971.8
2017-08-13T01:03:57.710Z,971.81
2017-08-13T01:04:57.704Z,971.83
2017-08-13T01:05:57.698Z,971.82
2017-08-13T01:06:57.694Z,971.86
2017-08-13T01:07:57.689Z,971.84
2017-08-13T01:08:57.682Z,971.84
2017-08-13T01:09:57.677Z,971.88
2017-08-13T01:10:57.671Z,971.86
2017-08-13T01:11:57.664Z,971.86
2017-08-13T01:12:57.660Z,971.89
2017-08-13T01:13:57.655Z,971.84
2017-08-13T01:14:57.650Z,971.89
2017-08-13T01:15:57.644Z,971.86
2017-08-13T01:16:57.638Z,971.87
2017-08-13T01:17:57.632Z,971.86
2017-08-13T01:18:57.629Z,971.9
2017-08-13T01:19:57.621Z,971.86
2017-08-13T01:20:57.617Z,971.92
2017-08-13T01:21:57.610Z,971.93
2017-08-13T01:22:57.605Z,971.9
2017-08-13T01:23:57.600Z,971.92
2017-08-13T01:24:57.594Z,971.94
2017-08-13T01:25:57.588Z,971.96
2017-08-13T01:26:57.583Z,971.93
2017-08-13T01:27:57.578Z,971.97
2017-08-13T01:28:57.572Z,971.94
2017-08-13T01:29:57.566Z,971.91
2017-08-13T01:30:57.562Z,971.95
2017-08-13T01:31:57.555Z,971.93
2017-08-13T01:32:57.550Z,971.93
2017-08-13T01:33:57.544Z,971.96
2017-08-13T01:34:57.538Z,971.88
2017-08-13T01:35:57.534Z,971.88
2017-08-13T01:36:57.528Z,971.9
2017-08-13T01:37:57.521Z,971.88
2017-08-13T01:38:57.515Z,971.83
2017-08-13T01:39:57.511Z,971.89
2017-08-13T01:40:57.506Z,971.87
2017-08-13T01:41:57.500Z,971.83
2017-08-13T01:42:57.494Z,971.85
2017-08-13T01:43:57.489Z,971.86
2017-08-13T01:44:57.482Z,971.89
2017-08-13T01:45:57.478Z,971.87
2017-08-13T01:46:57.473Z,971.85
2017-08-13T01:47:57.466Z,971.85
2017-08-13T01:48:57.461Z,971.86
2017-08-13T01:49:57.455Z,971.86
2017-08-13T01:50:57.450Z,971.86
2017-08-13T01:51:57.445Z,971.88
2017-08-13T01:52:57.438Z,971.87
2017-08-13T01:53:57.434Z,971.89
2017-08-13T01:54:57.428Z,971.93
2017-08-13T01:55:57.422Z,971.91
2017-08-13T01:56:57.415Z,971.9
2017-08-13T01:57:57.411Z,971.92
2017-08-13T01:58:57.405Z,971.91
2017-08-13T01:59:57.400Z,971.91
2017-08-13T02:00:57.394Z,971.86
2017-08-13T02:01:57.388Z,971.91
2017-08-13T02:02:57.384Z,971.85
2017-08-13T02:03:57.378Z,971.85
2017-08-13T02:04:57.371Z,971.84
2017-08-13T02:05:57.367Z,971.87
2017-08-13T02:06:57.360Z,971.88
2017-08-13T02:07:57.354Z,971.87
2017-08-13T02:08:57.350Z,971.86
2017-08-13T02:09:57.344Z,971.87
2017-08-13T02:10:57.337Z,971.85
2017-08-13T02:11:57.332Z,971.86
2017-08-13T02:12:57.326Z,971.85
2017-08-13T02:13:57.321Z,971.87
2017-08-13T02:14:57.316Z,971.86
2017-08-13T02:15:57.312Z,971.86
2017-08-13T02:16:57.307Z,971.84
2017-08-13T02:17:57.299Z,971.84
2017-08-13T02:18:57.293Z,971.83
2017-08-13T02:19:57.289Z,971.83
2017-08-13T02:20:57.283Z,971.83
2017-08-13T02:21:57.277Z,971.85
2017-08-13T02:22:57.272Z,971.85
2017-08-13T02:23:57.268Z,971.85
2017-08-13T02:24:57.260Z,971.83
2017-08-13T02:25:57.256Z,971.82
2017-08-13T02:26:57.251Z,971.78
2017-08-13T02:27:57.245Z,971.78
2017-08-13T02:28:57.238Z,971.8
2017-08-13T02:29:57.233Z,971.8
2017-08-13T02:30:57.227Z,971.79
2017-08-13T02:31:57.222Z,971.81
2017-08-13T02:32:57.216Z,971.86
2017-08-13T02:33:57.211Z,971.84
2017-08-13T02:34:57.205Z,971.85
2017-08-13T02:35:57.199Z,971.9
2017-08-13T02:36:57.194Z,971.92
2017-08-13T02:37:57.189Z,971.89
2017-08-13T02:38:57.182Z,971.97
2017-08-13T02:39:57.177Z,971.96
2017-08-13T02:40:57.172Z,971.94
2017-08-13T02:41:57.166Z,971.95
2017-08-13T02:42:57.162Z,971.92
2017-08-13T02:43:57.155Z,971.93
2017-08-13T02:44:57.149Z,971.91
2017-08-13T02:45:57.144Z,971.92
2017-08-13T02:46:57.138Z,971.89
2017-08-13T02:47:57.133Z,971.93
2017-08-13T02:48:57.126Z,971.92
2017-08-13T02:49:57.121Z,971.89
2017-08-13T02:50:57.116Z,971.91
2017-08-13T02:51:57.110Z,971.9
2017-08-13T02:52:57.103Z,971.91
2017-08-13T02:53:57.099Z,971.92
2017-08-13T02:54:57.093Z,971.93
2017-08-13T02:55:57.088Z,971.95
2017-08-13T02:56:57.081Z,971.92
2017-08-13T02:57:57.075Z,971.9
2017-08-13T02:58:57.070Z,971.9
2017-08-13T02:59:57.065Z,971.86
2017-08-13T03:00:57.060Z,971.88
2017-08-13T03:01:57.053Z,971.86
2017-08-13T03:02:57.047Z,971.93
2017-08-13T03:03:57.041Z,971.85
2017-08-13T03:04:57.038Z,971.85
2017-08-13T03:05:57.031Z,971.83
2017-08-13T03:06:57.025Z,971.87
2017-08-13T03:07:57.020Z,971.87
2017-08-13T03:08:57.014Z,971.84
2017-08-13T03:09:57.009Z,971.86
2017-08-13T03:10:57.003Z,971.89
2017-08-13T03:11:56.997Z,971.88
2017-08-13T03:12:56.992Z,971.86
2017-08-13T03:13:56.985Z,971.9
2017-08-13T03:14:56.981Z,971.91
2017-08-13T03:15:56.976Z,971.92
2017-08-13T03:16:56.970Z,971.9
2017-08-13T03:17:56.964Z,971.91
2017-08-13T03:18:56.958Z,971.94
2017-08-13T03:19:56.952Z,971.95
2017-08-13T03:20:56.947Z,971.94
2017-08-13T03:21:56.941Z,971.94
2017-08-13T03:22:56.935Z,971.96
2017-08-13T03:23:56.930Z,971.93
2017-08-13T03:24:56.923Z,971.97
2017-08-13T03:25:56.918Z,971.95
2017-08-13T03:26:56.912Z,971.92
2017-08-13T03:27:56.906Z,971.94
2017-08-13T03:28:56.900Z,971.9
2017-08-13T03:29:56.896Z,971.94
2017-08-13T03:30:56.891Z,971.96
2017-08-13T03:31:56.886Z,971.94
2017-08-13T03:32:56.879Z,971.96
2017-08-13T03:33:56.874Z,971.95
2017-08-13T03:34:56.866Z,971.97
2017-08-13T03:35:56.864Z,972
2017-08-13T03:36:56.856Z,971.98
2017-08-13T03:37:56.851Z,971.96
2017-08-13T03:38:56.844Z,971.93
2017-08-13T03:39:56.842Z,971.95
2017-08-13T03:40:56.835Z,971.91
2017-08-13T03:41:56.827Z,971.93
2017-08-13T03:42:56.822Z,971.91
2017-08-13T03:43:56.817Z,971.93
2017-08-13T03:44:56.812Z,971.91
2017-08-13T03:45:56.806Z,971.93
2017-08-13T03:46:56.799Z,971.91
2017-08-13T03:47:56.794Z,971.89
2017-08-13T03:48:56.789Z,971.91
2017-08-13T03:49:56.782Z,971.91
2017-08-13T03:50:56.777Z,971.86
2017-08-13T03:51:56.772Z,971.9
2017-08-13T03:52:56.767Z,971.86
2017-08-13T03:53:56.761Z,971.86
2017-08-13T03:54:56.756Z,971.86
2017-08-13T03:55:56.749Z,971.82
2017-08-13T03:56:56.743Z,971.85
2017-08-13T03:57:56.739Z,971.84
2017-08-13T03:58:56.732Z,971.83
2017-08-13T03:59:56.726Z,971.84
2017-08-13T04:00:56.721Z,971.8
2017-08-13T04:01:56.715Z,971.84
2017-08-13T04:02:56.711Z,971.85
2017-08-13T04:03:56.705Z,971.85
2017-08-13T04:04:56.699Z,971.84
2017-08-13T04:05:56.692Z,971.84
2017-08-13T04:06:56.688Z,971.83
2017-08-13T04:07:56.684Z,971.84
2017-08-13T04:08:56.676Z,971.84
2017-08-13T04:09:56.671Z,971.83
2017-08-13T04:10:56.664Z,971.81
2017-08-13T04:11:56.659Z,971.79
2017-08-13T04:12:56.653Z,971.79
2017-08-13T04:13:56.650Z,971.78
2017-08-13T04:14:56.640Z,971.71
2017-08-13T04:15:56.635Z,971.77
2017-08-13T04:16:56.630Z,971.74
2017-08-13T04:17:56.626Z,971.76
2017-08-13T04:18:56.619Z,971.78
2017-08-13T04:19:56.614Z,971.82
2017-08-13T04:20:56.609Z,971.78
2017-08-13T04:21:56.601Z,971.8
2017-08-13T04:22:56.597Z,971.82
2017-08-13T04:23:56.589Z,971.79
2017-08-13T04:24:56.585Z,971.83
2017-08-13T04:25:56.578Z,971.81
2017-08-13T04:26:56.575Z,971.82
2017-08-13T04:27:56.569Z,971.84
2017-08-13T04:28:56.562Z,971.84
2017-08-13T04:29:56.556Z,971.83
2017-08-13T04:30:56.550Z,971.85
2017-08-13T04:31:56.545Z,971.86
2017-08-13T04:32:56.540Z,971.85
2017-08-13T04:33:56.533Z,971.85
2017-08-13T04:34:56.529Z,971.83
2017-08-13T04:35:56.522Z,971.82
2017-08-13T04:36:56.517Z,971.8
2017-08-13T04:37:56.516Z,971.86
2017-08-13T04:38:56.505Z,971.82
2017-08-13T04:39:56.499Z,971.83
2017-08-13T04:40:56.494Z,971.85
2017-08-13T04:41:56.489Z,971.81
2017-08-13T04:42:56.499Z,971.83
2017-08-13T04:43:56.475Z,971.81
2017-08-13T04:44:56.470Z,971.84
2017-08-13T04:45:56.465Z,971.83
2017-08-13T04:46:56.461Z,971.84
2017-08-13T04:47:56.454Z,971.85
2017-08-13T04:48:56.448Z,971.86
2017-08-13T04:49:56.442Z,971.86
2017-08-13T04:50:56.437Z,971.83
2017-08-13T04:51:56.431Z,971.83
2017-08-13T04:52:56.425Z,971.86
2017-08-13T04:53:56.420Z,971.83
2017-08-13T04:54:56.415Z,971.85
2017-08-13T04:55:56.409Z,971.88
2017-08-13T04:56:56.405Z,971.84
2017-08-13T04:57:56.397Z,971.85
2017-08-13T04:58:56.393Z,971.86
2017-08-13T04:59:56.387Z,971.83
2017-08-13T05:00:56.382Z,971.85
2017-08-13T05:01:56.377Z,971.79
2017-08-13T05:02:56.369Z,971.81
2017-08-13T05:03:56.367Z,971.82
2017-08-13T05:04:56.360Z,971.84
2017-08-13T05:05:56.352Z,971.8
2017-08-13T05:06:56.347Z,971.82
2017-08-13T05:07:56.343Z,971.83
2017-08-13T05:08:56.338Z,971.84
2017-08-13T05:09:56.330Z,971.88
2017-08-13T05:10:56.324Z,971.83
2017-08-13T05:11:56.320Z,971.85
2017-08-13T05:12:56.316Z,971.84
2017-08-13T05:13:56.308Z,971.86
2017-08-13T05:14:56.303Z,971.86
2017-08-13T05:15:56.299Z,971.88
2017-08-13T05:16:56.290Z,971.84
2017-08-13T05:17:56.286Z,971.89
2017-08-13T05:18:56.282Z,971.86
2017-08-13T05:19:56.276Z,971.86
2017-08-13T05:20:56.270Z,971.86
2017-08-13T05:21:56.264Z,971.89
2017-08-13T05:22:56.260Z,971.89
2017-08-13T05:23:56.253Z,971.91
2017-08-13T05:24:56.248Z,971.89
2017-08-13T05:25:56.243Z,971.91
2017-08-13T05:26:56.239Z,971.91
2017-08-13T05:27:56.232Z,971.92
2017-08-13T05:28:56.228Z,971.97
2017-08-13T05:29:56.221Z,971.94
2017-08-13T05:30:56.215Z,971.94
2017-08-13T05:31:56.211Z,971.97
2017-08-13T05:32:56.204Z,971.94
2017-08-13T05:33:56.199Z,971.97
2017-08-13T05:34:56.194Z,971.94
2017-08-13T05:35:56.187Z,971.96
2017-08-13T05:36:56.183Z,971.94
2017-08-13T05:37:56.177Z,971.93
2017-08-13T05:38:56.171Z,971.96
2017-08-13T05:39:56.165Z,971.95
2017-08-13T05:40:56.161Z,971.98
2017-08-13T05:41:56.157Z,971.93
2017-08-13T05:42:56.150Z,971.96
2017-08-13T05:43:56.148Z,971.92
2017-08-13T05:44:56.139Z,971.94
2017-08-13T05:45:56.132Z,971.96
2017-08-13T05:46:56.128Z,971.94
2017-08-13T05:47:56.124Z,971.96
2017-08-13T05:48:56.116Z,971.92
2017-08-13T05:49:56.110Z,971.97
2017-08-13T05:50:56.106Z,971.94
2017-08-13T05:51:56.101Z,971.94
2017-08-13T05:52:56.095Z,971.95
2017-08-13T05:53:56.089Z,971.98
2017-08-13T05:54:56.086Z,971.99
2017-08-13T05:55:56.078Z,971.94
2017-08-13T05:56:56.076Z,971.96
2017-08-13T05:57:56.068Z,971.93
2017-08-13T05:58:56.066Z,971.94
2017-08-13T05:59:56.057Z,971.98
2017-08-13T06:00:56.052Z,971.96
2017-08-13T06:01:56.047Z,971.94
2017-08-13T06:02:56.041Z,971.99
2017-08-13T06:03:56.035Z,971.97
2017-08-13T06:04:56.029Z,971.97
2017-08-13T06:05:56.025Z,971.98
2017-08-13T06:06:56.019Z,972.01
2017-08-13T06:07:56.014Z,972.05
2017-08-13T06:08:56.008Z,972.07
2017-08-13T06:09:56.004Z,972.06
2017-08-13T06:10:55.999Z,972.12
2017-08-13T06:11:55.992Z,972.09
2017-08-13T06:12:55.988Z,972.1
2017-08-13T06:13:55.982Z,972.11
2017-08-13T06:14:55.996Z,972.11
2017-08-13T06:15:55.972Z,972.09
2017-08-13T06:16:55.966Z,972.11
2017-08-13T06:17:55.962Z,972.11
2017-08-13T06:18:55.955Z,972.15
2017-08-13T06:19:55.952Z,972.14
2017-08-13T06:20:55.946Z,972.16
2017-08-13T06:21:55.942Z,972.17
2017-08-13T06:22:55.935Z,972.17
2017-08-13T06:23:55.930Z,972.18
2017-08-13T06:24:55.926Z,972.14
2017-08-13T06:25:55.921Z,972.24
2017-08-13T06:26:55.916Z,972.27
2017-08-13T06:27:55.911Z,972.27
2017-08-13T06:28:55.904Z,972.24
2017-08-13T06:29:55.900Z,972.23
2017-08-13T06:30:55.897Z,972.24
2017-08-13T06:31:55.891Z,972.23
2017-08-13T06:32:55.887Z,972.25
2017-08-13T06:33:55.881Z,972.26
2017-08-13T06:34:55.877Z,972.29
2017-08-13T06:35:55.876Z,972.3
2017-08-13T06:36:55.870Z,972.26
2017-08-13T06:37:55.865Z,972.28
2017-08-13T06:38:55.876Z,972.29
2017-08-13T06:39:55.858Z,972.31
2017-08-13T06:40:55.854Z,972.27
2017-08-13T06:41:55.850Z,972.24
2017-08-13T06:42:55.849Z,972.21
2017-08-13T06:43:55.845Z,972.22
2017-08-13T06:44:55.842Z,972.19
2017-08-13T06:45:55.838Z,972.19
2017-08-13T06:46:55.835Z,972.26
2017-08-13T06:47:55.832Z,972.3
2017-08-13T06:48:55.829Z,972.27
2017-08-13T06:49:55.826Z,972.3
2017-08-13T06:50:55.824Z,972.34
2017-08-13T06:51:55.820Z,972.39
2017-08-13T06:52:55.817Z,972.33
2017-08-13T06:53:55.813Z,972.28
2017-08-13T06:54:55.810Z,972.32
2017-08-13T06:55:55.810Z,972.34
2017-08-13T06:56:55.804Z,972.26
2017-08-13T06:57:55.802Z,972.27
2017-08-13T06:58:55.798Z,972.29
2017-08-13T06:59:55.797Z,972.3
2017-08-13T07:00:55.794Z,972.31
2017-08-13T07:01:55.791Z,972.36
2017-08-13T07:02:55.789Z,972.32
2017-08-13T07:03:55.785Z,972.36
2017-08-13T07:04:55.783Z,972.31
2017-08-13T07:05:55.781Z,972.34
2017-08-13T07:06:55.781Z,972.35
2017-08-13T07:07:55.775Z,972.31
2017-08-13T07:08:55.771Z,972.31
2017-08-13T07:09:55.768Z,972.32
2017-08-13T07:10:55.766Z,972.31
2017-08-13T07:11:55.764Z,972.3
2017-08-13T07:12:55.760Z,972.36
2017-08-13T07:13:55.757Z,972.37
2017-08-13T07:14:55.756Z,972.36
2017-08-13T07:15:55.753Z,972.4
2017-08-13T07:16:55.756Z,972.4
2017-08-13T07:17:55.748Z,972.4
2017-08-13T07:18:55.745Z,972.38
2017-08-13T07:19:55.743Z,972.43
2017-08-13T07:20:55.738Z,972.47
2017-08-13T07:21:55.736Z,972.43
2017-08-13T07:22:55.734Z,972.44
2017-08-13T07:23:55.732Z,972.41
2017-08-13T07:24:55.728Z,972.41
2017-08-13T07:25:55.725Z,972.45
2017-08-13T07:26:55.723Z,972.41
2017-08-13T07:27:55.720Z,972.43
2017-08-13T07:28:55.715Z,972.43
2017-08-13T07:29:55.713Z,972.4
2017-08-13T07:30:55.713Z,972.47
2017-08-13T07:31:55.708Z,972.46
2017-08-13T07:32:55.705Z,972.42
2017-08-13T07:33:55.703Z,972.44
2017-08-13T07:34:55.700Z,972.46
2017-08-13T07:35:55.696Z,972.46
2017-08-13T07:36:55.694Z,972.45
2017-08-13T07:37:55.691Z,972.48
2017-08-13T07:38:55.689Z,972.49
2017-08-13T07:39:55.683Z,972.51
2017-08-13T07:40:55.683Z,972.49
2017-08-13T07:41:55.679Z,972.5
2017-08-13T07:42:55.676Z,972.49
2017-08-13T07:43:55.673Z,972.51
2017-08-13T07:44:55.671Z,972.46
2017-08-13T07:45:55.667Z,972.48
2017-08-13T07:46:55.664Z,972.49
2017-08-13T07:47:55.662Z,972.5
2017-08-13T07:48:55.657Z,972.47
2017-08-13T07:49:55.656Z,972.49
2017-08-13T07:50:55.651Z,972.46
2017-08-13T07:51:55.650Z,972.43
2017-08-13T07:52:55.646Z,972.4
2017-08-13T07:53:55.641Z,972.36
2017-08-13T07:54:55.640Z,972.37
2017-08-13T07:55:55.636Z,972.36
2017-08-13T07:56:55.633Z,972.37
2017-08-13T07:57:55.629Z,972.35
2017-08-13T07:58:55.627Z,972.38
2017-08-13T07:59:55.623Z,972.36
2017-08-13T08:00:55.620Z,972.36
2017-08-13T08:01:55.616Z,972.41
2017-08-13T08:02:55.613Z,972.37
2017-08-13T08:03:55.609Z,972.38
2017-08-13T08:04:55.605Z,972.42
2017-08-13T08:05:55.620Z,972.37
2017-08-13T08:06:55.598Z,972.39
2017-08-13T08:07:55.596Z,972.38
2017-08-13T08:08:55.591Z,972.37
2017-08-13T08:09:55.589Z,972.39
2017-08-13T08:10:55.584Z,972.38
2017-08-13T08:11:55.581Z,972.4
2017-08-13T08:12:55.579Z,972.36
2017-08-13T08:13:55.573Z,972.41
2017-08-13T08:14:55.568Z,972.38
2017-08-13T08:15:55.565Z,972.4
2017-08-13T08:16:55.563Z,972.42
2017-08-13T08:17:55.559Z,972.43
2017-08-13T08:18:55.555Z,972.38
2017-08-13T08:19:55.550Z,972.38
2017-08-13T08:20:55.548Z,972.39
2017-08-13T08:21:55.544Z,972.41
2017-08-13T08:22:55.538Z,972.4
2017-08-13T08:23:55.534Z,972.4
2017-08-13T08:24:55.532Z,972.39
2017-08-13T08:25:55.528Z,972.41
2017-08-13T08:26:55.523Z,972.39
2017-08-13T08:27:55.518Z,972.38
2017-08-13T08:28:55.515Z,972.37
2017-08-13T08:29:55.511Z,972.38
2017-08-13T08:30:55.508Z,972.33
2017-08-13T08:31:55.504Z,972.38
2017-08-13T08:32:55.501Z,972.35
2017-08-13T08:33:55.504Z,972.41
2017-08-13T08:34:55.493Z,972.4
2017-08-13T08:35:55.489Z,972.4
2017-08-13T08:36:55.484Z,972.4
2017-08-13T08:37:55.480Z,972.37
2017-08-13T08:38:55.479Z,972.37
2017-08-13T08:39:55.473Z,972.4
2017-08-13T08:40:55.469Z,972.33
2017-08-13T08:41:55.464Z,972.41
2017-08-13T08:42:55.461Z,972.42
2017-08-13T08:43:55.459Z,972.38
2017-08-13T08:44:55.455Z,972.4
2017-08-13T08:45:55.449Z,972.36
2017-08-13T08:46:55.444Z,972.39
2017-08-13T08:47:55.443Z,972.37
2017-08-13T08:48:55.437Z,972.35
2017-08-13T08:49:55.433Z,972.37
2017-08-13T08:50:55.429Z,972.35
2017-08-13T08:51:55.428Z,972.34
2017-08-13T08:52:55.422Z,972.29
2017-08-13T08:53:55.417Z,972.31
2017-08-13T08:54:55.413Z,972.28
2017-08-13T08:55:55.411Z,972.31
2017-08-13T08:56:55.406Z,972.29
2017-08-13T08:57:55.404Z,972.28
2017-08-13T08:58:55.399Z,972.28
2017-08-13T08:59:55.393Z,972.25
2017-08-13T09:00:55.391Z,972.27
2017-08-13T09:01:55.387Z,972.25
2017-08-13T09:02:55.383Z,972.25
2017-08-13T09:03:55.379Z,972.23
2017-08-13T09:04:55.375Z,972.24
2017-08-13T09:05:55.371Z,972.23
2017-08-13T09:06:55.367Z,972.24
2017-08-13T09:07:55.365Z,972.21
2017-08-13T09:08:55.359Z,972.26
2017-08-13T09:09:55.354Z,972.23
2017-08-13T09:10:55.355Z,972.23
2017-08-13T09:11:55.347Z,972.23
2017-08-13T09:12:55.343Z,972.18
2017-08-13T09:13:55.338Z,972.21
2017-08-13T09:14:55.336Z,972.22
2017-08-13T09:15:55.331Z,972.22
2017-08-13T09:16:55.327Z,972.2
2017-08-13T09:17:55.321Z,972.22
2017-08-13T09:18:55.318Z,972.22
2017-08-13T09:19:55.315Z,972.22
2017-08-13T09:20:55.309Z,972.22
2017-08-13T09:21:55.305Z,972.2
2017-08-13T09:22:55.302Z,972.19
2017-08-13T09:23:55.299Z,972.17
2017-08-13T09:24:55.295Z,972.14
2017-08-13T09:25:55.289Z,972.14
2017-08-13T09:26:55.285Z,972.15
2017-08-13T09:27:55.281Z,972.13
2017-08-13T09:28:55.276Z,972.11
2017-08-13T09:29:55.272Z,972.14
2017-08-13T09:30:55.268Z,972.11
2017-08-13T09:31:55.263Z,972.12
2017-08-13T09:32:55.260Z,972.11
2017-08-13T09:33:55.254Z,972.07
2017-08-13T09:34:55.250Z,972.05
2017-08-13T09:35:55.248Z,972.08
2017-08-13T09:36:55.245Z,972.04
2017-08-13T09:37:55.239Z,972.08
2017-08-13T09:38:55.235Z,972.08
2017-08-13T09:39:55.230Z,972.06
2017-08-13T09:40:55.230Z,972.1
2017-08-13T09:41:55.220Z,972.06
2017-08-13T09:42:55.217Z,972.07
2017-08-13T09:43:55.211Z,972.05
2017-08-13T09:44:55.207Z,972.09
2017-08-13T09:45:55.205Z,972.12
2017-08-13T09:46:55.201Z,972.1
2017-08-13T09:47:55.196Z,972.1
2017-08-13T09:48:55.191Z,972.12
2017-08-13T09:49:55.187Z,972.09
2017-08-13T09:50:55.182Z,972.11
2017-08-13T09:51:55.178Z,972.12
2017-08-13T09:52:55.173Z,972.1
2017-08-13T09:53:55.170Z,972.09
2017-08-13T09:54:55.164Z,972.1
2017-08-13T09:55:55.160Z,972.11
2017-08-13T09:56:55.155Z,972.1
2017-08-13T09:57:55.152Z,972.12
2017-08-13T09:58:55.148Z,972.12
2017-08-13T09:59:55.142Z,972.11
2017-08-13T10:00:55.140Z,972.1
2017-08-13T10:01:55.133Z,972.11
2017-08-13T10:02:55.130Z,972.08
2017-08-13T10:03:55.126Z,972.09
2017-08-13T10:04:55.122Z,972.09
2017-08-13T10:05:55.116Z,972.05
2017-08-13T10:06:55.113Z,972.03
2017-08-13T10:07:55.109Z,972.04
2017-08-13T10:08:55.104Z,972.04
2017-08-13T10:09:55.101Z,972.06
2017-08-13T10:10:55.096Z,972.03
2017-08-13T10:11:55.092Z,972.03
2017-08-13T10:12:55.087Z,972.02
2017-08-13T10:13:55.083Z,971.97
2017-08-13T10:14:55.079Z,972
2017-08-13T10:15:55.075Z,971.98
2017-08-13T10:16:55.070Z,972
2017-08-13T10:17:55.065Z,971.99
2017-08-13T10:18:55.106Z,971.96
2017-08-13T10:19:55.057Z,971.92
2017-08-13T10:20:55.058Z,971.92
2017-08-13T10:21:55.047Z,971.93
2017-08-13T10:22:55.044Z,971.91
2017-08-13T10:23:55.040Z,971.9
2017-08-13T10:24:55.035Z,971.91
2017-08-13T10:25:55.032Z,971.87
2017-08-13T10:26:55.028Z,971.85
2017-08-13T10:27:55.022Z,971.87
2017-08-13T10:28:55.016Z,971.88
2017-08-13T10:29:55.013Z,971.84
2017-08-13T10:30:55.014Z,971.87
2017-08-13T10:31:55.005Z,971.86
2017-08-13T10:32:55.001Z,971.86
2017-08-13T10:33:54.997Z,971.84
2017-08-13T10:34:54.991Z,971.83
2017-08-13T10:35:54.986Z,971.77
2017-08-13T10:36:54.983Z,971.81
2017-08-13T10:37:54.980Z,971.82
2017-08-13T10:38:54.975Z,971.79
2017-08-13T10:39:54.972Z,971.77
2017-08-13T10:40:54.964Z,971.78
2017-08-13T10:41:54.961Z,971.82
2017-08-13T10:42:54.957Z,971.8
2017-08-13T10:43:54.953Z,971.76
2017-08-13T10:44:54.949Z,971.77
2017-08-13T10:45:54.943Z,971.76
2017-08-13T10:46:54.939Z,971.76
2017-08-13T10:47:54.936Z,971.76
2017-08-13T10:48:54.930Z,971.76
2017-08-13T10:49:54.925Z,971.73
2017-08-13T10:50:54.921Z,971.75
2017-08-13T10:51:54.917Z,971.71
2017-08-13T10:52:54.913Z,971.69
2017-08-13T10:53:54.908Z,971.71
2017-08-13T10:54:54.904Z,971.72
2017-08-13T10:55:54.901Z,971.67
2017-08-13T10:56:54.895Z,971.65
2017-08-13T10:57:54.892Z,971.62
2017-08-13T10:58:54.886Z,971.66
2017-08-13T10:59:54.883Z,971.61
2017-08-13T11:00:54.878Z,971.62
2017-08-13T11:01:54.874Z,971.66
2017-08-13T11:02:54.870Z,971.62
2017-08-13T11:03:54.863Z,971.61
2017-08-13T11:04:54.860Z,971.62
2017-08-13T11:05:54.856Z,971.6
2017-08-13T11:06:54.858Z,971.63
2017-08-13T11:07:54.847Z,971.55
2017-08-13T11:08:54.843Z,971.54
2017-08-13T11:09:54.838Z,971.54
2017-08-13T11:10:54.833Z,971.54
2017-08-13T11:11:54.830Z,971.56
2017-08-13T11:12:54.824Z,971.54
2017-08-13T11:13:54.820Z,971.52
2017-08-13T11:14:54.816Z,971.55
2017-08-13T11:15:54.812Z,971.51
2017-08-13T11:16:54.808Z,971.48
2017-08-13T11:17:54.819Z,971.5
2017-08-13T11:18:54.799Z,971.45
2017-08-13T11:19:54.797Z,971.47
2017-08-13T11:20:54.791Z,971.43
2017-08-13T11:21:54.788Z,971.43
2017-08-13T11:22:54.782Z,971.4
2017-08-13T11:23:54.778Z,971.41
2017-08-13T11:24:54.773Z,971.44
2017-08-13T11:25:54.769Z,971.42
2017-08-13T11:26:54.764Z,971.42
2017-08-13T11:27:54.760Z,971.36
2017-08-13T11:28:54.755Z,971.34
2017-08-13T11:29:54.752Z,971.31
2017-08-13T11:30:54.748Z,971.31
2017-08-13T11:31:54.742Z,971.27
2017-08-13T11:32:54.739Z,971.28
2017-08-13T11:33:54.734Z,971.31
2017-08-13T11:34:54.730Z,971.28
2017-08-13T11:35:54.724Z,971.31
2017-08-13T11:36:54.720Z,971.28
2017-08-13T11:37:54.717Z,971.25
2017-08-13T11:38:54.713Z,971.23
2017-08-13T11:39:54.707Z,971.21
2017-08-13T11:40:54.702Z,971.18
2017-08-13T11:41:54.699Z,971.19
2017-08-13T11:42:54.696Z,971.19
2017-08-13T11:43:54.691Z,971.18
2017-08-13T11:44:54.686Z,971.12
2017-08-13T11:45:54.683Z,971.15
2017-08-13T11:46:54.679Z,971.17
2017-08-13T11:47:54.674Z,971.15
2017-08-13T11:48:54.670Z,971.12
2017-08-13T11:49:54.665Z,971.17
2017-08-13T11:50:54.661Z,971.13
2017-08-13T11:51:54.657Z,971.18
2017-08-13T11:52:54.652Z,971.12
2017-08-13T11:53:54.650Z,971.11
2017-08-13T11:54:54.644Z,971.15
2017-08-13T11:55:54.638Z,971.12
2017-08-13T11:56:54.636Z,971.12
2017-08-13T11:57:54.629Z,971.16
2017-08-13T11:58:54.626Z,971.13
2017-08-13T11:59:54.621Z,971.12
2017-08-13T12:00:54.618Z,971.11
2017-08-13T12:01:54.613Z,971.11
2017-08-13T12:02:54.609Z,971.07
2017-08-13T12:03:54.604Z,971.08
2017-08-13T12:04:54.600Z,971.1
2017-08-13T12:05:54.596Z,971.09
2017-08-13T12:06:54.591Z,971.09
2017-08-13T12:07:54.587Z,971.07
2017-08-13T12:08:54.583Z,971.06
2017-08-13T12:09:54.579Z,971.08
2017-08-13T12:10:54.575Z,971.07
2017-08-13T12:11:54.570Z,971.09
2017-08-13T12:12:54.567Z,971.05
2017-08-13T12:13:54.562Z,971.03
2017-08-13T12:14:54.557Z,971.04
2017-08-13T12:15:54.552Z,971.01
2017-08-13T12:16:54.547Z,971.02
2017-08-13T12:17:54.544Z,971.04
2017-08-13T12:18:54.539Z,971.01
2017-08-13T12:19:54.535Z,971.04
2017-08-13T12:20:54.530Z,971.01
2017-08-13T12:21:54.527Z,971.01
2017-08-13T12:22:54.522Z,970.99
2017-08-13T12:23:54.519Z,971
2017-08-13T12:24:54.513Z,971.01
2017-08-13T12:25:54.508Z,971.01
2017-08-13T12:26:54.505Z,971.01
2017-08-13T12:27:54.500Z,970.99
2017-08-13T12:28:54.496Z,971.01
2017-08-13T12:29:54.493Z,971.01
2017-08-13T12:30:54.487Z,970.99
2017-08-13T12:31:54.482Z,970.95